On this page "live" data from an IoT device is shown. More sensors are connected to the device but to keep things clear, only a selection of the data is presented. The data is refreshed each 15 seconds. For this demo, only the last 100 entries in the database are shown, but it is easy to imagine that now that the data is available from anywhere in the world, one can use it for plotting graphs or add controls to it. Your imagination is the limit!

A short clarification of the data columns:

  • Date: date on which the data is transmitted
  • Time: time on which the data is transmitted (GMT time zone)
  • GSM: the charge percentage of the GSM battery
  • Latitude: the geo-latitude position of the IoT device
  • Longitude: the geo-longitude position of the IoT device
  • IR lux: the IR luminosity at the position of the IoT device (in arbitrary units (a.u.))
  • Visible lux: the visible light luminosity (a.u.) at the position of the IoT device
  • UV-A lux: the UV index A luminosity (a.u.)
  • Temp: the environmental temperature in degrees Celcius
  • Pressure: the environmental pressure in mbar
  • Humidity: the environmental humidity in %
  • Solar amps in: the current harvested by the solar panel (in mA)
  • Storage amps out: the current drawn from the solar storage battery (in mA)

 


...connected
Date Time GSM Latitude Longitude IR lux Visible lux UV-A lux Temp Pressure Humidity Solar amps in Storage amps out
20/01/19 11:35:59 100 51.72382 5.877248 34 74 9 21.129999 1038.819946 51.189999 -1.25 -3.75
20/01/19 11:36:14 100 51.723732 5.877088 35 76 9 21.129999 1038.910034 51.139999 -2.5 -2.5
20/01/19 11:36:29 100 51.723701 5.877105 43 85 12 21.139999 1038.910034 51.07 -1.25 -2.5
20/01/19 11:36:44 100 51.723713 5.877203 42 84 11 21.139999 1038.910034 51.040001 -2.5 -1.25
20/01/19 11:36:59 100 51.723717 5.877193 42 83 11 21.139999 1038.819946 51.040001 -2.5 -2.5
20/01/19 11:37:14 100 51.723721 5.877213 41 82 11 21.139999 1038.910034 51.049999 -2.5 -1.25
20/01/19 11:37:28 100 51.723728 5.877257 40 80 10 21.15 1038.910034 51.049999 -1.25 -3.75
20/01/19 11:37:43 100 51.723679 5.87729 35 75 9 21.15 1038.910034 51.029999 -2.5 -2.5
20/01/19 11:37:58 100 51.723637 5.87723 34 72 9 21.15 1038.910034 51.029999 -1.25 -2.5
20/01/19 11:38:13 100 51.723633 5.877258 31 69 8 21.15 1038.910034 51.029999 -2.5 -2.5
20/01/19 11:38:28 100 51.723682 5.877302 31 68 7 21.15 1038.910034 51.029999 -2.5 -1.25
20/01/19 11:38:43 100 51.723633 5.877347 22 57 5 21.15 1038.910034 51.049999 -2.5 -5
20/01/19 11:38:58 100 51.723633 5.877282 23 59 5 21.15 1038.910034 51.029999 -2.5 -2.5
20/01/19 11:39:12 100 51.723682 5.8772 26 61 6 21.15 1038.910034 51.040001 -2.5 -2.5
20/01/19 11:39:27 100 51.723606 5.877263 27 64 7 21.15 1038.930054 51.040001 -1.25 -2.5
20/01/19 11:39:42 100 51.723656 5.877133 22 56 5 21.139999 1038.930054 51.060001 -3.75 -3.75
20/01/19 11:39:57 100 51.723572 5.877153 22 57 5 21.139999 1038.930054 51.110001 -2.5 -2.5
20/01/19 11:40:12 100 51.723606 5.877095 23 59 5 21.139999 1038.930054 51.16 -3.75 -3.75
20/01/19 11:40:27 100 51.723679 5.877038 21 57 4 21.139999 1038.930054 51.189999 -2.5 -2.5
20/01/19 11:40:42 100 51.72364 5.877052 36 75 9 21.139999 1038.910034 51.16 -2.5 -2.5
20/01/19 11:40:56 100 51.723598 5.876975 26 62 6 21.139999 1038.910034 51.169998 -2.5 -3.75
20/01/19 11:41:11 100 51.723602 5.876973 37 77 10 21.139999 1038.910034 51.18 -2.5 -1.25
20/01/19 11:41:26 100 51.72366 5.877012 37 77 10 21.139999 1038.910034 51.18 -2.5 -1.25
20/01/19 11:41:41 100 51.723705 5.877037 37 76 10 21.15 1038.910034 51.150002 -1.25 -1.25
20/01/19 11:41:56 100 51.723598 5.877093 37 76 10 21.15 1038.910034 51.119999 -2.5 -1.25
20/01/19 11:42:11 100 51.723583 5.877115 37 76 9 21.15 1038.910034 51.119999 -3.75 -1.25
20/01/19 11:42:25 100 51.723595 5.87705 36 76 9 21.15 1038.910034 51.139999 -2.5 -1.25
20/01/19 11:42:40 100 51.723606 5.87715 36 76 9 21.15 1038.930054 51.16 -1.25 -2.5
20/01/19 11:42:55 100 51.723602 5.877187 36 76 9 21.16 1038.930054 51.169998 -1.25 -3.75
20/01/19 11:43:10 100 51.72366 5.877197 36 76 9 21.16 1038.930054 51.23 -1.25 -2.5
20/01/19 11:43:25 100 51.723618 5.877152 36 76 9 21.17 1038.910034 51.220001 -2.5 -3.75
20/01/19 11:43:40 100 51.723621 5.877047 37 76 9 21.17 1038.910034 51.189999 -1.25 -1.25
20/01/19 11:43:55 100 51.723675 5.876973 37 76 9 21.17 1038.930054 51.169998 -1.25 -2.5
20/01/19 11:44:09 100 51.723728 5.876957 37 76 9 21.17 1038.949951 51.130001 -2.5 -2.5
20/01/19 11:44:24 100 51.723598 5.876812 37 76 10 21.18 1038.949951 51.09 -2.5 -5
20/01/19 11:44:39 100 51.723656 5.876828 37 76 10 21.18 1038.949951 51.119999 -3.75 -2.5
20/01/19 11:44:54 100 51.723713 5.876872 37 76 9 21.18 1038.949951 51.119999 0 -2.5
20/01/19 11:45:09 100 51.723652 5.876895 36 76 9 21.18 1038.949951 51.099998 -2.5 -2.5
20/01/19 11:45:24 100 51.723598 5.876895 36 76 9 21.18 1038.949951 51.080002 -1.25 -2.5
20/01/19 11:45:39 100 51.723587 5.87696 36 76 9 21.18 1038.949951 51.060001 -2.5 -3.75
20/01/19 11:45:53 100 51.723557 5.87713 36 76 9 21.18 1038.949951 51.060001 -2.5 -2.5
20/01/19 11:46:08 100 51.723579 5.877085 37 76 9 21.18 1038.949951 51.049999 -2.5 -2.5
20/01/19 11:46:23 100 51.723572 5.876942 36 76 9 21.18 1038.949951 51.040001 -2.5 -2.5
20/01/19 11:46:38 100 51.723526 5.877017 36 77 9 21.18 1038.949951 51.02 -2.5 -2.5
20/01/19 11:46:53 100 51.723572 5.877083 36 77 9 21.18 1038.949951 51.029999 -2.5 -2.5
20/01/19 11:47:08 100 51.723667 5.87709 36 77 9 21.18 1038.949951 51.029999 -2.5 0
20/01/19 11:47:22 100 51.723698 5.877122 37 76 10 21.18 1038.949951 51.009998 -1.25 -1.25
20/01/19 11:47:37 100 51.723782 5.877098 36 76 9 21.18 1038.949951 51 -2.5 -1.25
20/01/19 11:47:52 100 51.723808 5.877152 36 75 9 21.18 1038.949951 51.009998 -3.75 -2.5
20/01/19 11:48:07 100 51.723854 5.877118 35 75 9 21.18 1038.949951 50.990002 -3.75 -2.5
20/01/19 11:48:22 100 51.723858 5.877023 36 74 9 21.18 1038.949951 51 -2.5 -1.25
20/01/19 11:48:37 100 51.723873 5.876908 35 75 9 21.18 1038.949951 51.029999 -2.5 -1.25
20/01/19 11:48:52 100 51.723831 5.876815 35 75 9 21.18 1038.949951 51.009998 -2.5 -1.25
20/01/19 11:49:07 100 51.723759 5.876777 35 74 9 21.18 1038.949951 50.990002 -2.5 -2.5
20/01/19 11:49:21 100 51.723713 5.876833 33 72 8 21.18 1038.969971 51.009998 -2.5 -2.5
20/01/19 11:49:36 100 51.723785 5.876797 36 74 9 21.18 1038.969971 51.02 -2.5 -2.5
20/01/19 11:49:51 100 51.723869 5.876793 35 74 9 21.17 1038.969971 51.02 -2.5 -1.25
20/01/19 11:50:06 100 51.723816 5.876933 33 71 8 21.17 1038.98999 51.029999 -2.5 -2.5
20/01/19 11:50:21 100 51.723747 5.876982 34 72 8 21.17 1038.98999 51.029999 -2.5 -2.5
20/01/19 11:50:36 100 51.723686 5.877032 35 74 9 21.17 1038.969971 51.07 -3.75 -3.75
20/01/19 11:50:50 100 51.723694 5.87706 35 75 9 21.17 1038.969971 51.07 -2.5 -3.75
20/01/19 11:51:05 100 51.723598 5.877068 35 74 9 21.17 1038.969971 51.09 -2.5 -3.75
20/01/19 11:51:20 100 51.723537 5.877108 34 73 9 21.17 1038.949951 51.07 0 -1.25
20/01/19 11:51:35 100 51.723602 5.877102 35 75 9 21.17 1038.949951 51.07 -2.5 -2.5
20/01/19 11:51:50 100 51.723534 5.877172 35 75 9 21.16 1038.969971 51.060001 -3.75 -2.5
20/01/19 11:52:05 100 51.723324 5.877325 36 74 9 21.16 1038.969971 51.099998 -2.5 -2.5
20/01/19 11:52:20 100 51.72353 5.877202 36 74 9 21.16 1038.969971 51.119999 -2.5 -2.5
20/01/19 11:52:34 100 51.723698 5.877065 36 75 9 21.16 1038.969971 51.110001 -2.5 -5
20/01/19 11:52:49 100 51.723763 5.876967 36 75 9 21.16 1038.969971 51.099998 -1.25 -1.25
20/01/19 11:53:04 100 51.723743 5.87715 36 75 9 21.17 1038.98999 51.099998 -1.25 -2.5
20/01/19 11:53:19 100 51.723797 5.877105 36 74 9 21.17 1038.98999 51.119999 -1.25 0
20/01/19 11:53:34 100 51.723816 5.877057 36 75 9 21.17 1038.98999 51.119999 -3.75 -2.5
20/01/19 11:53:49 100 51.72385 5.876962 36 75 9 21.17 1039.01001 51.099998 0 -2.5
20/01/19 11:54:03 100 51.723778 5.877008 36 75 9 21.17 1039.01001 51.099998 -1.25 -2.5
20/01/19 11:54:18 100 51.723621 5.8771 36 75 9 21.17 1039.050049 51.09 -2.5 -3.75
20/01/19 11:54:33 100 51.72374 5.876852 36 76 9 21.17 1039.050049 51.099998 -2.5 -1.25
20/01/19 11:54:48 100 51.723694 5.876995 37 76 10 21.17 1039.050049 51.099998 -1.25 -1.25
20/01/19 11:55:03 100 51.723644 5.877047 37 76 10 21.17 1039.050049 51.119999 -1.25 -2.5
20/01/19 11:55:18 100 51.723759 5.876983 37 76 9 21.17 1039.030029 51.09 -2.5 -2.5
20/01/19 11:55:32 100 51.723866 5.877007 36 76 10 21.17 1039.030029 51.099998 -2.5 -1.25
20/01/19 11:55:47 100 51.72374 5.877107 35 73 9 21.17 1039.050049 51.07 -1.25 -2.5
20/01/19 11:56:02 100 51.723797 5.876998 33 71 8 21.17 1039.050049 51.080002 -3.75 -2.5
20/01/19 11:56:17 100 51.723755 5.876882 37 76 10 21.17 1039.050049 51.09 -2.5 -2.5
20/01/19 11:56:32 100 51.723721 5.876868 37 77 10 21.17 1039.060059 51.07 -2.5 -3.75
20/01/19 11:56:47 100 51.723839 5.876688 37 77 10 21.17 1039.060059 51.080002 -1.25 0
20/01/19 11:57:01 100 51.723763 5.876793 37 76 10 21.17 1039.079956 51.09 -3.75 -3.75
20/01/19 11:57:16 100 51.723591 5.876973 37 75 9 21.17 1039.079956 51.110001 -1.25 -1.25
20/01/19 11:57:31 100 51.723652 5.87695 36 75 9 21.17 1039.079956 51.150002 -2.5 -1.25
20/01/19 11:57:46 100 51.723618 5.876918 37 75 10 21.17 1039.060059 51.110001 -2.5 -2.5
20/01/19 11:58:01 100 51.723621 5.876922 35 75 9 21.17 1039.079956 51.09 -1.25 -2.5
20/01/19 11:58:16 100 51.723572 5.87704 36 76 9 21.17 1039.099976 51.09 -1.25 -2.5
20/01/19 11:58:31 100 51.723663 5.877055 36 76 9 21.16 1039.099976 51.09 -1.25 -2.5
20/01/19 11:58:45 100 51.723621 5.877068 36 75 9 21.16 1039.099976 51.080002 -1.25 -2.5
20/01/19 11:59:02 100 51.723618 5.877045 36 74 9 21.16 1039.119995 51.09 -2.5 -1.25
20/01/19 11:59:17 100 51.723606 5.876957 35 74 9 21.16 1039.140015 51.099998 -2.5 -3.75
20/01/19 11:59:32 100 51.723759 5.876833 35 74 9 21.15 1039.140015 51.099998 -2.5 -2.5
20/01/19 11:59:47 100 51.723808 5.876815 35 74 9 21.15 1039.140015 51.099998 -2.5 -2.5
20/01/19 12:00:02 100 51.723759 5.876905 35 74 9 21.15 1039.119995 51.130001 -2.5 -2.5
20/01/19 12:00:17 100 51.723637 5.876942 35 73 9 21.15 1039.119995 51.169998 -1.25 -3.75
20/01/19 12:00:31 100 51.72366 5.876888 35 73 9 21.15 1039.119995 51.189999 -1.25 -2.5
20/01/19 12:00:46 100 51.723675 5.876928 35 72 9 21.15 1039.119995 51.209999 -3.75 -2.5

Mc'bedded
Idastraat 5
5431 GJ Cuijk
Dit e-mailadres wordt beveiligd tegen spambots. JavaScript dient ingeschakeld te zijn om het te bekijken.

Telephone +31 6 20 40 61 02

Chamber of Commerce Arnhem 72696311

Bank account NL46 KNAB 0258 2265 60